sensor_id;sensor_type;location;lat;lon;timestamp;P1;durP1;ratioP1;P2;durP2;ratioP2
7289;SDS011;63176;52.678;13.250;2023-03-23T00:02:02;2.07;;;1.83;;
7289;SDS011;63176;52.678;13.250;2023-03-23T00:04:27;5.03;;;1.60;;
7289;SDS011;63176;52.678;13.250;2023-03-23T00:06:54;2.15;;;1.75;;
7289;SDS011;63176;52.678;13.250;2023-03-23T00:09:19;2.60;;;1.70;;
7289;SDS011;63176;52.678;13.250;2023-03-23T00:11:49;1.88;;;1.45;;
7289;SDS011;63176;52.678;13.250;2023-03-23T00:14:15;1.77;;;1.50;;
7289;SDS011;63176;52.678;13.250;2023-03-23T00:16:41;1.50;;;1.40;;
7289;SDS011;63176;52.678;13.250;2023-03-23T00:19:08;5.47;;;1.80;;
7289;SDS011;63176;52.678;13.250;2023-03-23T00:21:38;1.88;;;1.20;;
7289;SDS011;63176;52.678;13.250;2023-03-23T00:24:07;5.25;;;1.95;;
7289;SDS011;63176;52.678;13.250;2023-03-23T00:26:47;2.03;;;1.38;;
7289;SDS011;63176;52.678;13.250;2023-03-23T00:29:18;2.55;;;1.67;;
7289;SDS011;63176;52.678;13.250;2023-03-23T00:31:46;2.35;;;1.52;;
7289;SDS011;63176;52.678;13.250;2023-03-23T00:34:13;2.40;;;1.55;;
7289;SDS011;63176;52.678;13.250;2023-03-23T00:36:43;1.35;;;1.25;;
7289;SDS011;63176;52.678;13.250;2023-03-23T00:39:10;2.80;;;1.50;;
7289;SDS011;63176;52.678;13.250;2023-03-23T00:41:36;4.05;;;1.60;;
7289;SDS011;63176;52.678;13.250;2023-03-23T00:44:03;3.78;;;1.52;;
7289;SDS011;63176;52.678;13.250;2023-03-23T00:46:29;1.27;;;1.10;;
7289;SDS011;63176;52.678;13.250;2023-03-23T00:48:55;1.50;;;1.30;;
7289;SDS011;63176;52.678;13.250;2023-03-23T00:51:22;2.58;;;1.35;;
7289;SDS011;63176;52.678;13.250;2023-03-23T00:53:48;2.28;;;1.10;;
7289;SDS011;63176;52.678;13.250;2023-03-23T00:56:14;1.50;;;1.10;;
7289;SDS011;63176;52.678;13.250;2023-03-23T00:58:40;2.10;;;1.47;;
7289;SDS011;63176;52.678;13.250;2023-03-23T01:01:06;1.52;;;1.25;;
7289;SDS011;63176;52.678;13.250;2023-03-23T01:03:32;1.77;;;1.30;;
7289;SDS011;63176;52.678;13.250;2023-03-23T01:06:03;2.67;;;1.13;;
7289;SDS011;63176;52.678;13.250;2023-03-23T01:08:33;2.00;;;1.23;;
7289;SDS011;63176;52.678;13.250;2023-03-23T01:11:02;1.10;;;1.00;;
7289;SDS011;63176;52.678;13.250;2023-03-23T01:13:30;4.00;;;1.67;;
7289;SDS011;63176;52.678;13.250;2023-03-23T01:15:55;1.33;;;1.23;;
7289;SDS011;63176;52.678;13.250;2023-03-23T01:18:21;1.57;;;1.33;;
7289;SDS011;63176;52.678;13.250;2023-03-23T01:20:46;4.17;;;1.30;;
7289;SDS011;63176;52.678;13.250;2023-03-23T01:23:12;5.20;;;1.73;;
7289;SDS011;63176;52.678;13.250;2023-03-23T01:25:38;1.20;;;1.10;;
7289;SDS011;63176;52.678;13.250;2023-03-23T01:28:04;2.53;;;1.60;;
7289;SDS011;63176;52.678;13.250;2023-03-23T01:30:29;2.03;;;1.40;;
7289;SDS011;63176;52.678;13.250;2023-03-23T01:32:55;2.20;;;1.57;;
7289;SDS011;63176;52.678;13.250;2023-03-23T01:35:21;2.17;;;1.27;;
7289;SDS011;63176;52.678;13.250;2023-03-23T01:37:47;2.55;;;1.50;;
7289;SDS011;63176;52.678;13.250;2023-03-23T01:40:13;2.03;;;1.52;;
7289;SDS011;63176;52.678;13.250;2023-03-23T01:42:39;2.40;;;1.50;;
7289;SDS011;63176;52.678;13.250;2023-03-23T01:47:56;2.55;;;1.25;;
7289;SDS011;63176;52.678;13.250;2023-03-23T01:50:26;1.33;;;1.23;;
7289;SDS011;63176;52.678;13.250;2023-03-23T01:52:55;2.00;;;1.35;;
7289;SDS011;63176;52.678;13.250;2023-03-23T01:55:24;1.60;;;1.50;;
7289;SDS011;63176;52.678;13.250;2023-03-23T01:57:52;1.02;;;1.02;;
7289;SDS011;63176;52.678;13.250;2023-03-23T02:00:20;4.20;;;1.30;;
7289;SDS011;63176;52.678;13.250;2023-03-23T02:02:46;1.40;;;1.30;;
7289;SDS011;63176;52.678;13.250;2023-03-23T02:05:15;2.67;;;1.55;;
7289;SDS011;63176;52.678;13.250;2023-03-23T02:07:47;1.83;;;1.70;;
7289;SDS011;63176;52.678;13.250;2023-03-23T02:10:13;1.35;;;1.25;;
7289;SDS011;63176;52.678;13.250;2023-03-23T02:12:39;1.40;;;1.30;;
7289;SDS011;63176;52.678;13.250;2023-03-23T02:15:05;1.17;;;1.07;;
7289;SDS011;63176;52.678;13.250;2023-03-23T02:17:40;1.50;;;1.17;;
7289;SDS011;63176;52.678;13.250;2023-03-23T02:34:32;1.52;;;1.05;;
7289;SDS011;63176;52.678;13.250;2023-03-23T02:37:24;1.45;;;1.35;;
7289;SDS011;63176;52.678;13.250;2023-03-23T02:39:56;1.90;;;1.40;;
7289;SDS011;63176;52.678;13.250;2023-03-23T02:42:45;4.15;;;1.48;;
7289;SDS011;63176;52.678;13.250;2023-03-23T02:45:15;2.00;;;1.67;;
7289;SDS011;63176;52.678;13.250;2023-03-23T02:47:42;1.30;;;1.20;;
7289;SDS011;63176;52.678;13.250;2023-03-23T02:50:10;1.80;;;1.50;;
7289;SDS011;63176;52.678;13.250;2023-03-23T02:52:40;1.10;;;1.00;;
7289;SDS011;63176;52.678;13.250;2023-03-23T02:55:08;1.63;;;1.40;;
7289;SDS011;63176;52.678;13.250;2023-03-23T02:57:36;2.15;;;1.35;;
7289;SDS011;63176;52.678;13.250;2023-03-23T03:00:07;2.33;;;1.27;;
7289;SDS011;63176;52.678;13.250;2023-03-23T03:02:46;1.00;;;0.80;;
7289;SDS011;63176;52.678;13.250;2023-03-23T03:16:15;0.90;;;0.90;;
7289;SDS011;63176;52.678;13.250;2023-03-23T03:21:23;2.73;;;1.83;;
7289;SDS011;63176;52.678;13.250;2023-03-23T03:23:53;6.15;;;1.38;;
7289;SDS011;63176;52.678;13.250;2023-03-23T03:26:23;1.52;;;1.10;;
7289;SDS011;63176;52.678;13.250;2023-03-23T03:28:52;2.97;;;1.70;;
7289;SDS011;63176;52.678;13.250;2023-03-23T03:31:19;2.88;;;1.35;;
7289;SDS011;63176;52.678;13.250;2023-03-23T03:33:48;1.45;;;1.35;;
7289;SDS011;63176;52.678;13.250;2023-03-23T03:36:16;1.38;;;1.27;;
7289;SDS011;63176;52.678;13.250;2023-03-23T03:38:46;3.83;;;1.80;;
7289;SDS011;63176;52.678;13.250;2023-03-23T03:41:13;2.00;;;1.70;;
7289;SDS011;63176;52.678;13.250;2023-03-23T03:43:39;2.57;;;1.60;;
7289;SDS011;63176;52.678;13.250;2023-03-23T03:46:05;2.93;;;1.60;;
7289;SDS011;63176;52.678;13.250;2023-03-23T03:48:30;1.63;;;1.40;;
7289;SDS011;63176;52.678;13.250;2023-03-23T03:50:56;3.20;;;1.80;;
7289;SDS011;63176;52.678;13.250;2023-03-23T03:53:26;1.77;;;1.60;;
7289;SDS011;63176;52.678;13.250;2023-03-23T03:55:52;4.10;;;2.38;;
7289;SDS011;63176;52.678;13.250;2023-03-23T03:58:21;2.15;;;1.60;;
7289;SDS011;63176;52.678;13.250;2023-03-23T04:00:47;1.87;;;1.77;;
7289;SDS011;63176;52.678;13.250;2023-03-23T04:03:14;1.40;;;1.30;;
7289;SDS011;63176;52.678;13.250;2023-03-23T04:05:41;1.70;;;1.60;;
7289;SDS011;63176;52.678;13.250;2023-03-23T04:08:09;1.48;;;1.38;;
7289;SDS011;63176;52.678;13.250;2023-03-23T04:10:36;3.15;;;1.92;;
7289;SDS011;63176;52.678;13.250;2023-03-23T04:13:01;2.50;;;1.57;;
7289;SDS011;63176;52.678;13.250;2023-03-23T04:15:29;2.17;;;1.70;;
7289;SDS011;63176;52.678;13.250;2023-03-23T04:17:55;2.13;;;1.90;;
7289;SDS011;63176;52.678;13.250;2023-03-23T04:20:22;3.85;;;2.22;;
7289;SDS011;63176;52.678;13.250;2023-03-23T04:22:48;3.30;;;1.77;;
7289;SDS011;63176;52.678;13.250;2023-03-23T04:25:14;3.25;;;1.90;;
7289;SDS011;63176;52.678;13.250;2023-03-23T04:27:42;2.80;;;2.13;;
7289;SDS011;63176;52.678;13.250;2023-03-23T04:30:11;7.47;;;2.10;;
7289;SDS011;63176;52.678;13.250;2023-03-23T04:32:38;3.08;;;2.55;;
7289;SDS011;63176;52.678;13.250;2023-03-23T04:35:25;2.88;;;2.25;;
7289;SDS011;63176;52.678;13.250;2023-03-23T04:37:51;3.45;;;2.60;;
7289;SDS011;63176;52.678;13.250;2023-03-23T04:40:18;3.05;;;1.80;;
7289;SDS011;63176;52.678;13.250;2023-03-23T04:42:44;3.83;;;1.85;;
7289;SDS011;63176;52.678;13.250;2023-03-23T04:45:11;3.72;;;2.17;;
7289;SDS011;63176;52.678;13.250;2023-03-23T04:47:39;2.90;;;2.38;;
7289;SDS011;63176;52.678;13.250;2023-03-23T04:50:07;2.90;;;1.92;;
7289;SDS011;63176;52.678;13.250;2023-03-23T04:52:38;3.28;;;1.92;;
7289;SDS011;63176;52.678;13.250;2023-03-23T04:55:05;2.92;;;1.90;;
7289;SDS011;63176;52.678;13.250;2023-03-23T04:57:32;2.30;;;2.05;;
7289;SDS011;63176;52.678;13.250;2023-03-23T04:59:58;2.03;;;1.83;;
7289;SDS011;63176;52.678;13.250;2023-03-23T05:02:25;2.47;;;2.17;;
7289;SDS011;63176;52.678;13.250;2023-03-23T05:04:55;3.13;;;2.42;;
7289;SDS011;63176;52.678;13.250;2023-03-23T05:07:22;2.40;;;1.98;;
7289;SDS011;63176;52.678;13.250;2023-03-23T05:09:48;4.32;;;2.22;;
7289;SDS011;63176;52.678;13.250;2023-03-23T05:12:14;3.00;;;2.10;;
7289;SDS011;63176;52.678;13.250;2023-03-23T05:14:40;4.10;;;2.00;;
7289;SDS011;63176;52.678;13.250;2023-03-23T05:17:06;2.67;;;2.40;;
7289;SDS011;63176;52.678;13.250;2023-03-23T05:19:32;3.90;;;2.60;;
7289;SDS011;63176;52.678;13.250;2023-03-23T05:21:58;3.63;;;2.30;;
7289;SDS011;63176;52.678;13.250;2023-03-23T05:24:27;4.72;;;2.70;;
7289;SDS011;63176;52.678;13.250;2023-03-23T05:26:58;4.20;;;2.70;;
7289;SDS011;63176;52.678;13.250;2023-03-23T05:29:27;5.65;;;2.88;;
7289;SDS011;63176;52.678;13.250;2023-03-23T05:31:55;5.03;;;2.53;;
7289;SDS011;63176;52.678;13.250;2023-03-23T05:34:25;3.67;;;2.53;;
7289;SDS011;63176;52.678;13.250;2023-03-23T05:36:51;4.07;;;2.78;;
7289;SDS011;63176;52.678;13.250;2023-03-23T05:39:18;4.55;;;3.00;;
7289;SDS011;63176;52.678;13.250;2023-03-23T05:41:44;2.40;;;2.20;;
7289;SDS011;63176;52.678;13.250;2023-03-23T05:44:09;3.30;;;2.70;;
7289;SDS011;63176;52.678;13.250;2023-03-23T05:46:35;5.50;;;2.80;;
7289;SDS011;63176;52.678;13.250;2023-03-23T05:49:00;2.80;;;2.50;;
7289;SDS011;63176;52.678;13.250;2023-03-23T05:51:27;4.70;;;2.20;;
7289;SDS011;63176;52.678;13.250;2023-03-23T05:53:52;2.90;;;2.00;;
7289;SDS011;63176;52.678;13.250;2023-03-23T05:56:18;1.83;;;1.73;;
7289;SDS011;63176;52.678;13.250;2023-03-23T05:58:44;4.73;;;2.10;;
7289;SDS011;63176;52.678;13.250;2023-03-23T06:01:09;5.27;;;2.80;;
7289;SDS011;63176;52.678;13.250;2023-03-23T06:03:37;2.67;;;2.22;;
7289;SDS011;63176;52.678;13.250;2023-03-23T06:06:03;2.50;;;2.03;;
7289;SDS011;63176;52.678;13.250;2023-03-23T06:08:29;4.63;;;2.00;;
7289;SDS011;63176;52.678;13.250;2023-03-23T06:10:55;6.97;;;2.03;;
7289;SDS011;63176;52.678;13.250;2023-03-23T06:13:21;3.65;;;2.05;;
7289;SDS011;63176;52.678;13.250;2023-03-23T06:15:48;2.35;;;1.65;;
7289;SDS011;63176;52.678;13.250;2023-03-23T06:18:14;3.33;;;1.90;;
7289;SDS011;63176;52.678;13.250;2023-03-23T06:20:39;4.47;;;2.33;;
7289;SDS011;63176;52.678;13.250;2023-03-23T06:23:05;2.30;;;1.80;;
7289;SDS011;63176;52.678;13.250;2023-03-23T06:25:33;2.60;;;2.10;;
7289;SDS011;63176;52.678;13.250;2023-03-23T06:27:59;3.53;;;2.17;;
7289;SDS011;63176;52.678;13.250;2023-03-23T06:30:25;3.87;;;2.03;;
7289;SDS011;63176;52.678;13.250;2023-03-23T06:32:52;3.05;;;1.60;;
7289;SDS011;63176;52.678;13.250;2023-03-23T06:35:18;2.72;;;1.65;;
7289;SDS011;63176;52.678;13.250;2023-03-23T06:37:44;1.90;;;1.70;;
7289;SDS011;63176;52.678;13.250;2023-03-23T06:40:11;1.52;;;1.42;;
7289;SDS011;63176;52.678;13.250;2023-03-23T06:42:37;1.97;;;1.73;;
7289;SDS011;63176;52.678;13.250;2023-03-23T06:45:03;2.83;;;1.73;;
7289;SDS011;63176;52.678;13.250;2023-03-23T06:47:29;2.80;;;1.65;;
7289;SDS011;63176;52.678;13.250;2023-03-23T06:49:56;1.77;;;1.35;;
7289;SDS011;63176;52.678;13.250;2023-03-23T06:52:22;3.25;;;1.42;;
7289;SDS011;63176;52.678;13.250;2023-03-23T06:54:49;3.15;;;1.50;;
7289;SDS011;63176;52.678;13.250;2023-03-23T06:57:15;4.00;;;1.90;;
7289;SDS011;63176;52.678;13.250;2023-03-23T06:59:41;3.13;;;1.63;;
7289;SDS011;63176;52.678;13.250;2023-03-23T07:02:11;4.35;;;1.80;;
7289;SDS011;63176;52.678;13.250;2023-03-23T07:04:39;3.15;;;1.85;;
7289;SDS011;63176;52.678;13.250;2023-03-23T07:07:06;2.00;;;1.77;;
7289;SDS011;63176;52.678;13.250;2023-03-23T07:09:33;5.63;;;3.00;;
7289;SDS011;63176;52.678;13.250;2023-03-23T07:11:59;2.50;;;1.77;;
7289;SDS011;63176;52.678;13.250;2023-03-23T07:17:42;5.93;;;3.83;;
7289;SDS011;63176;52.678;13.250;2023-03-23T07:20:08;8.13;;;4.78;;
7289;SDS011;63176;52.678;13.250;2023-03-23T07:22:35;6.25;;;2.13;;
7289;SDS011;63176;52.678;13.250;2023-03-23T07:25:00;3.00;;;1.57;;
7289;SDS011;63176;52.678;13.250;2023-03-23T07:27:26;1.67;;;1.43;;
7289;SDS011;63176;52.678;13.250;2023-03-23T07:29:52;2.30;;;1.90;;
7289;SDS011;63176;52.678;13.250;2023-03-23T07:32:18;1.40;;;1.30;;
7289;SDS011;63176;52.678;13.250;2023-03-23T07:34:44;2.53;;;1.50;;
7289;SDS011;63176;52.678;13.250;2023-03-23T07:37:09;4.40;;;1.30;;
7289;SDS011;63176;52.678;13.250;2023-03-23T07:39:35;1.60;;;1.40;;
7289;SDS011;63176;52.678;13.250;2023-03-23T07:42:01;2.95;;;1.50;;
7289;SDS011;63176;52.678;13.250;2023-03-23T07:44:27;4.57;;;1.50;;
7289;SDS011;63176;52.678;13.250;2023-03-23T07:46:53;1.80;;;1.53;;
7289;SDS011;63176;52.678;13.250;2023-03-23T07:49:18;1.63;;;1.40;;
7289;SDS011;63176;52.678;13.250;2023-03-23T07:51:44;9.07;;;1.40;;
7289;SDS011;63176;52.678;13.250;2023-03-23T07:54:10;3.22;;;1.77;;
7289;SDS011;63176;52.678;13.250;2023-03-23T07:56:37;1.65;;;1.55;;
7289;SDS011;63176;52.678;13.250;2023-03-23T07:59:06;2.25;;;1.50;;
7289;SDS011;63176;52.678;13.250;2023-03-23T08:01:33;3.45;;;1.42;;
7289;SDS011;63176;52.678;13.250;2023-03-23T08:03:58;3.90;;;1.30;;
7289;SDS011;63176;52.678;13.250;2023-03-23T08:06:26;2.25;;;1.45;;
7289;SDS011;63176;52.678;13.250;2023-03-23T08:08:52;2.17;;;1.60;;
7289;SDS011;63176;52.678;13.250;2023-03-23T08:11:18;1.85;;;1.30;;
7289;SDS011;63176;52.678;13.250;2023-03-23T08:13:46;2.47;;;1.63;;
7289;SDS011;63176;52.678;13.250;2023-03-23T08:16:12;1.73;;;1.40;;
7289;SDS011;63176;52.678;13.250;2023-03-23T08:18:38;1.98;;;1.15;;
7289;SDS011;63176;52.678;13.250;2023-03-23T08:21:05;2.38;;;1.70;;
7289;SDS011;63176;52.678;13.250;2023-03-23T08:23:33;1.45;;;1.27;;
7289;SDS011;63176;52.678;13.250;2023-03-23T08:26:01;2.25;;;1.58;;
7289;SDS011;63176;52.678;13.250;2023-03-23T08:28:31;2.40;;;1.23;;
7289;SDS011;63176;52.678;13.250;2023-03-23T08:30:57;0.93;;;0.90;;
7289;SDS011;63176;52.678;13.250;2023-03-23T08:33:23;2.10;;;1.30;;
7289;SDS011;63176;52.678;13.250;2023-03-23T08:35:58;2.80;;;1.67;;
7289;SDS011;63176;52.678;13.250;2023-03-23T08:38:24;2.38;;;1.30;;
7289;SDS011;63176;52.678;13.250;2023-03-23T08:40:50;1.57;;;1.30;;
7289;SDS011;63176;52.678;13.250;2023-03-23T08:43:17;1.10;;;1.00;;
7289;SDS011;63176;52.678;13.250;2023-03-23T08:45:43;2.87;;;1.00;;
7289;SDS011;63176;52.678;13.250;2023-03-23T08:48:08;1.40;;;1.30;;
7289;SDS011;63176;52.678;13.250;2023-03-23T08:50:35;3.22;;;0.93;;
7289;SDS011;63176;52.678;13.250;2023-03-23T08:53:01;1.60;;;1.30;;
7289;SDS011;63176;52.678;13.250;2023-03-23T08:55:28;2.77;;;1.30;;
7289;SDS011;63176;52.678;13.250;2023-03-23T08:57:54;1.17;;;1.08;;
7289;SDS011;63176;52.678;13.250;2023-03-23T09:00:20;2.43;;;1.40;;
7289;SDS011;63176;52.678;13.250;2023-03-23T09:02:50;2.25;;;1.10;;
7289;SDS011;63176;52.678;13.250;2023-03-23T09:05:17;2.65;;;2.45;;
7289;SDS011;63176;52.678;13.250;2023-03-23T09:07:46;1.30;;;1.20;;
7289;SDS011;63176;52.678;13.250;2023-03-23T09:10:14;2.25;;;1.20;;
7289;SDS011;63176;52.678;13.250;2023-03-23T09:12:40;1.75;;;1.60;;
7289;SDS011;63176;52.678;13.250;2023-03-23T09:15:07;2.45;;;1.40;;
7289;SDS011;63176;52.678;13.250;2023-03-23T09:17:42;1.33;;;1.05;;
7289;SDS011;63176;52.678;13.250;2023-03-23T09:20:13;1.50;;;1.25;;
7289;SDS011;63176;52.678;13.250;2023-03-23T09:22:42;2.30;;;1.20;;
7289;SDS011;63176;52.678;13.250;2023-03-23T09:25:09;3.15;;;1.67;;
7289;SDS011;63176;52.678;13.250;2023-03-23T09:27:37;1.70;;;1.60;;
7289;SDS011;63176;52.678;13.250;2023-03-23T09:30:08;2.33;;;1.10;;
7289;SDS011;63176;52.678;13.250;2023-03-23T09:32:36;1.97;;;1.10;;
7289;SDS011;63176;52.678;13.250;2023-03-23T09:35:03;4.03;;;1.27;;
7289;SDS011;63176;52.678;13.250;2023-03-23T09:37:32;1.50;;;0.87;;
7289;SDS011;63176;52.678;13.250;2023-03-23T09:40:00;1.90;;;0.80;;
7289;SDS011;63176;52.678;13.250;2023-03-23T09:42:37;1.23;;;0.97;;
7289;SDS011;63176;52.678;13.250;2023-03-23T09:45:22;2.30;;;1.23;;
7289;SDS011;63176;52.678;13.250;2023-03-23T09:48:10;0.70;;;0.63;;
7289;SDS011;63176;52.678;13.250;2023-03-23T09:50:47;2.30;;;1.00;;
7289;SDS011;63176;52.678;13.250;2023-03-23T09:53:26;2.20;;;1.10;;
7289;SDS011;63176;52.678;13.250;2023-03-23T09:56:00;1.07;;;0.90;;
7289;SDS011;63176;52.678;13.250;2023-03-23T09:58:36;1.73;;;0.90;;
7289;SDS011;63176;52.678;13.250;2023-03-23T10:01:12;0.90;;;0.90;;
7289;SDS011;63176;52.678;13.250;2023-03-23T10:03:43;1.67;;;0.90;;
7289;SDS011;63176;52.678;13.250;2023-03-23T10:06:10;1.30;;;0.80;;
7289;SDS011;63176;52.678;13.250;2023-03-23T10:08:43;2.13;;;1.10;;
7289;SDS011;63176;52.678;13.250;2023-03-23T10:22:13;1.00;;;0.90;;
7289;SDS011;63176;52.678;13.250;2023-03-23T10:24:43;3.60;;;1.33;;
7289;SDS011;63176;52.678;13.250;2023-03-23T10:27:28;1.67;;;0.93;;
7289;SDS011;63176;52.678;13.250;2023-03-23T10:30:05;0.97;;;0.97;;
7289;SDS011;63176;52.678;13.250;2023-03-23T10:32:46;1.27;;;0.80;;
7289;SDS011;63176;52.678;13.250;2023-03-23T10:35:19;1.97;;;1.10;;
7289;SDS011;63176;52.678;13.250;2023-03-23T10:37:52;3.60;;;0.87;;
7289;SDS011;63176;52.678;13.250;2023-03-23T10:40:23;1.33;;;0.83;;
7289;SDS011;63176;52.678;13.250;2023-03-23T10:42:52;0.80;;;0.80;;
7289;SDS011;63176;52.678;13.250;2023-03-23T10:45:22;0.80;;;0.70;;
7289;SDS011;63176;52.678;13.250;2023-03-23T10:47:56;1.27;;;0.87;;
7289;SDS011;63176;52.678;13.250;2023-03-23T10:50:34;1.97;;;1.10;;
7289;SDS011;63176;52.678;13.250;2023-03-23T10:53:03;1.10;;;1.00;;
7289;SDS011;63176;52.678;13.250;2023-03-23T10:55:41;1.00;;;0.73;;
7289;SDS011;63176;52.678;13.250;2023-03-23T10:58:11;1.30;;;1.10;;
7289;SDS011;63176;52.678;13.250;2023-03-23T11:00:46;0.70;;;0.70;;
7289;SDS011;63176;52.678;13.250;2023-03-23T11:08:22;1.90;;;0.93;;
7289;SDS011;63176;52.678;13.250;2023-03-23T11:10:51;0.90;;;0.90;;
7289;SDS011;63176;52.678;13.250;2023-03-23T11:13:23;1.10;;;0.90;;
7289;SDS011;63176;52.678;13.250;2023-03-23T11:15:56;1.70;;;0.80;;
7289;SDS011;63176;52.678;13.250;2023-03-23T11:18:24;1.03;;;0.70;;
7289;SDS011;63176;52.678;13.250;2023-03-23T11:20:52;3.37;;;1.10;;
7289;SDS011;63176;52.678;13.250;2023-03-23T11:23:26;1.00;;;0.90;;
7289;SDS011;63176;52.678;13.250;2023-03-23T11:26:13;2.40;;;0.83;;
7289;SDS011;63176;52.678;13.250;2023-03-23T11:28:43;2.33;;;1.20;;
7289;SDS011;63176;52.678;13.250;2023-03-23T11:31:20;1.07;;;0.90;;
7289;SDS011;63176;52.678;13.250;2023-03-23T11:33:50;0.80;;;0.70;;
7289;SDS011;63176;52.678;13.250;2023-03-23T11:36:28;1.00;;;0.97;;
7289;SDS011;63176;52.678;13.250;2023-03-23T11:39:19;1.60;;;0.87;;
7289;SDS011;63176;52.678;13.250;2023-03-23T11:41:47;2.77;;;1.00;;
7289;SDS011;63176;52.678;13.250;2023-03-23T11:44:13;0.97;;;0.90;;
7289;SDS011;63176;52.678;13.250;2023-03-23T11:46:44;1.73;;;0.90;;
7289;SDS011;63176;52.678;13.250;2023-03-23T11:49:57;1.80;;;0.90;;
7289;SDS011;63176;52.678;13.250;2023-03-23T11:52:43;1.03;;;0.83;;
7289;SDS011;63176;52.678;13.250;2023-03-23T11:58:10;1.17;;;0.70;;
7289;SDS011;63176;52.678;13.250;2023-03-23T12:00:40;2.03;;;0.90;;
7289;SDS011;63176;52.678;13.250;2023-03-23T12:03:15;5.90;;;1.00;;
7289;SDS011;63176;52.678;13.250;2023-03-23T12:06:05;1.63;;;1.07;;
7289;SDS011;63176;52.678;13.250;2023-03-23T12:08:52;1.00;;;0.90;;
7289;SDS011;63176;52.678;13.250;2023-03-23T12:19:13;2.00;;;0.90;;
7289;SDS011;63176;52.678;13.250;2023-03-23T12:24:51;2.87;;;0.80;;
7289;SDS011;63176;52.678;13.250;2023-03-23T12:33:13;3.20;;;1.00;;
7289;SDS011;63176;52.678;13.250;2023-03-23T12:47:46;1.70;;;0.97;;
7289;SDS011;63176;52.678;13.250;2023-03-23T12:50:37;7.50;;;0.97;;
7289;SDS011;63176;52.678;13.250;2023-03-23T12:55:47;1.23;;;0.90;;
7289;SDS011;63176;52.678;13.250;2023-03-23T12:58:35;4.17;;;1.40;;
7289;SDS011;63176;52.678;13.250;2023-03-23T13:01:10;3.33;;;1.00;;
7289;SDS011;63176;52.678;13.250;2023-03-23T13:11:29;2.60;;;0.90;;
7289;SDS011;63176;52.678;13.250;2023-03-23T13:22:13;1.23;;;0.90;;
7289;SDS011;63176;52.678;13.250;2023-03-23T13:24:43;0.90;;;0.70;;
7289;SDS011;63176;52.678;13.250;2023-03-23T13:27:16;1.87;;;1.37;;
7289;SDS011;63176;52.678;13.250;2023-03-23T13:29:45;1.90;;;0.90;;
7289;SDS011;63176;52.678;13.250;2023-03-23T13:32:12;1.57;;;0.80;;
7289;SDS011;63176;52.678;13.250;2023-03-23T13:34:41;1.93;;;1.07;;
7289;SDS011;63176;52.678;13.250;2023-03-23T13:37:10;2.70;;;1.20;;
7289;SDS011;63176;52.678;13.250;2023-03-23T13:39:50;5.50;;;1.20;;
7289;SDS011;63176;52.678;13.250;2023-03-23T13:42:24;2.23;;;1.00;;
7289;SDS011;63176;52.678;13.250;2023-03-23T13:49:50;2.47;;;1.07;;
7289;SDS011;63176;52.678;13.250;2023-03-23T13:54:51;1.83;;;1.00;;
7289;SDS011;63176;52.678;13.250;2023-03-23T13:57:35;1.87;;;1.10;;
7289;SDS011;63176;52.678;13.250;2023-03-23T14:00:25;1.40;;;1.10;;
7289;SDS011;63176;52.678;13.250;2023-03-23T14:05:45;3.87;;;1.43;;
7289;SDS011;63176;52.678;13.250;2023-03-23T14:08:22;2.73;;;1.67;;
7289;SDS011;63176;52.678;13.250;2023-03-23T14:10:53;2.70;;;0.93;;
7289;SDS011;63176;52.678;13.250;2023-03-23T14:13:31;3.10;;;1.10;;
7289;SDS011;63176;52.678;13.250;2023-03-23T14:16:05;1.30;;;0.90;;
7289;SDS011;63176;52.678;13.250;2023-03-23T14:18:50;1.00;;;0.87;;
7289;SDS011;63176;52.678;13.250;2023-03-23T14:21:22;2.00;;;0.87;;
7289;SDS011;63176;52.678;13.250;2023-03-23T14:23:56;3.60;;;1.00;;
7289;SDS011;63176;52.678;13.250;2023-03-23T14:26:25;1.27;;;0.70;;
7289;SDS011;63176;52.678;13.250;2023-03-23T14:28:51;2.00;;;0.80;;
7289;SDS011;63176;52.678;13.250;2023-03-23T14:33:46;2.40;;;1.10;;
7289;SDS011;63176;52.678;13.250;2023-03-23T14:36:13;3.07;;;0.87;;
7289;SDS011;63176;52.678;13.250;2023-03-23T14:38:44;1.67;;;0.73;;
7289;SDS011;63176;52.678;13.250;2023-03-23T14:41:10;4.10;;;1.17;;
7289;SDS011;63176;52.678;13.250;2023-03-23T14:43:37;1.63;;;1.07;;
7289;SDS011;63176;52.678;13.250;2023-03-23T14:46:05;2.80;;;0.83;;
7289;SDS011;63176;52.678;13.250;2023-03-23T14:48:33;2.10;;;1.07;;
7289;SDS011;63176;52.678;13.250;2023-03-23T14:51:01;0.97;;;0.87;;
7289;SDS011;63176;52.678;13.250;2023-03-23T14:53:35;1.97;;;1.00;;
7289;SDS011;63176;52.678;13.250;2023-03-23T14:56:02;1.97;;;0.80;;
7289;SDS011;63176;52.678;13.250;2023-03-23T14:58:34;1.40;;;0.90;;
7289;SDS011;63176;52.678;13.250;2023-03-23T15:01:02;5.90;;;1.33;;
7289;SDS011;63176;52.678;13.250;2023-03-23T15:03:45;1.63;;;1.00;;
7289;SDS011;63176;52.678;13.250;2023-03-23T15:06:23;1.80;;;0.80;;
7289;SDS011;63176;52.678;13.250;2023-03-23T15:08:54;2.00;;;0.93;;
7289;SDS011;63176;52.678;13.250;2023-03-23T15:11:30;2.20;;;1.10;;
7289;SDS011;63176;52.678;13.250;2023-03-23T15:14:14;1.27;;;0.97;;
7289;SDS011;63176;52.678;13.250;2023-03-23T15:16:49;2.50;;;1.00;;
7289;SDS011;63176;52.678;13.250;2023-03-23T15:19:19;1.87;;;1.00;;
7289;SDS011;63176;52.678;13.250;2023-03-23T15:22:06;1.13;;;0.97;;
7289;SDS011;63176;52.678;13.250;2023-03-23T15:24:40;1.10;;;1.00;;
7289;SDS011;63176;52.678;13.250;2023-03-23T15:27:11;1.10;;;0.70;;
7289;SDS011;63176;52.678;13.250;2023-03-23T15:29:47;1.63;;;0.90;;
7289;SDS011;63176;52.678;13.250;2023-03-23T15:32:28;2.07;;;0.80;;
7289;SDS011;63176;52.678;13.250;2023-03-23T15:34:56;2.10;;;1.13;;
7289;SDS011;63176;52.678;13.250;2023-03-23T15:39:53;0.87;;;0.87;;
7289;SDS011;63176;52.678;13.250;2023-03-23T15:42:25;0.80;;;0.80;;
7289;SDS011;63176;52.678;13.250;2023-03-23T15:47:38;0.90;;;0.70;;
7289;SDS011;63176;52.678;13.250;2023-03-23T15:52:51;2.77;;;0.80;;
7289;SDS011;63176;52.678;13.250;2023-03-23T15:55:27;0.80;;;0.70;;
7289;SDS011;63176;52.678;13.250;2023-03-23T15:57:55;2.10;;;0.70;;
7289;SDS011;63176;52.678;13.250;2023-03-23T16:00:23;1.63;;;0.83;;
7289;SDS011;63176;52.678;13.250;2023-03-23T16:02:54;3.20;;;1.10;;
7289;SDS011;63176;52.678;13.250;2023-03-23T16:05:22;7.43;;;0.80;;
7289;SDS011;63176;52.678;13.250;2023-03-23T16:07:48;1.60;;;1.37;;
7289;SDS011;63176;52.678;13.250;2023-03-23T16:10:18;2.20;;;1.00;;
7289;SDS011;63176;52.678;13.250;2023-03-23T16:12:46;4.00;;;1.67;;
7289;SDS011;63176;52.678;13.250;2023-03-23T16:15:12;1.33;;;1.07;;
7289;SDS011;63176;52.678;13.250;2023-03-23T16:17:39;2.47;;;1.10;;
7289;SDS011;63176;52.678;13.250;2023-03-23T16:20:12;2.00;;;1.27;;
7289;SDS011;63176;52.678;13.250;2023-03-23T16:22:43;1.53;;;1.00;;
7289;SDS011;63176;52.678;13.250;2023-03-23T16:25:10;2.45;;;0.95;;
7289;SDS011;63176;52.678;13.250;2023-03-23T16:27:37;3.10;;;1.27;;
7289;SDS011;63176;52.678;13.250;2023-03-23T16:30:36;2.03;;;0.90;;
7289;SDS011;63176;52.678;13.250;2023-03-23T16:32:57;1.63;;;0.80;;
7289;SDS011;63176;52.678;13.250;2023-03-23T16:35:23;1.30;;;1.20;;
7289;SDS011;63176;52.678;13.250;2023-03-23T16:37:50;3.07;;;1.10;;
7289;SDS011;63176;52.678;13.250;2023-03-23T16:40:18;1.63;;;1.10;;
7289;SDS011;63176;52.678;13.250;2023-03-23T16:42:44;2.30;;;1.10;;
7289;SDS011;63176;52.678;13.250;2023-03-23T16:45:11;1.80;;;0.90;;
7289;SDS011;63176;52.678;13.250;2023-03-23T16:47:38;2.80;;;0.87;;
7289;SDS011;63176;52.678;13.250;2023-03-23T16:50:04;1.40;;;0.90;;
7289;SDS011;63176;52.678;13.250;2023-03-23T16:52:33;0.70;;;0.50;;
7289;SDS011;63176;52.678;13.250;2023-03-23T16:54:58;1.57;;;0.90;;
7289;SDS011;63176;52.678;13.250;2023-03-23T16:57:25;1.10;;;0.67;;
7289;SDS011;63176;52.678;13.250;2023-03-23T16:59:51;0.50;;;0.50;;
7289;SDS011;63176;52.678;13.250;2023-03-23T17:02:17;3.30;;;1.00;;
7289;SDS011;63176;52.678;13.250;2023-03-23T17:04:43;2.30;;;1.07;;